Time;durP1;ratioP1;P1;durP2;ratioP2;P2;SDS_P1;SDS_P2;PMS_P1;PMS_P2;Temp;Humidity;BMP_temperature;BMP_pressure;BME280_temperature;BME280_humidity;BME280_pressure;Samples;Min_cycle;Max_cycle;Signal;HPM_P1;HPM_P2
2024/01/30 00:00:25;;;;;;;;;0.00;0.00;;;;;11.98;100.00;102445.94;5079371;27;46887;-88
2024/01/30 00:02:50;;;;;;;;;0.00;0.00;;;;;12.00;100.00;102446.78;5096574;27;47678;-89
2024/01/30 00:05:15;;;;;;;;;0.00;0.00;;;;;11.99;100.00;102445.03;5079443;27;45342;-91
2024/01/30 00:07:41;;;;;;;;;0.00;0.00;;;;;12.01;100.00;102446.75;5096580;27;45255;-89
2024/01/30 00:10:06;;;;;;;;;0.00;0.00;;;;;11.97;100.00;102438.97;5096898;27;48165;-89
2024/01/30 00:12:32;;;;;;;;;0.00;0.00;;;;;12.05;100.00;102444.13;5096331;27;45935;-89
2024/01/30 00:15:00;;;;;;;;;0.00;0.00;;;;;12.05;100.00;102439.78;5092709;27;45487;-89
2024/01/30 00:17:28;;;;;;;;;0.00;0.00;;;;;12.12;100.00;102449.28;5076337;28;45334;-89
2024/01/30 00:19:53;;;;;;;;;0.00;0.00;;;;;12.11;100.00;102444.97;5075640;28;46204;-89
2024/01/30 00:22:18;;;;;;;;;0.00;0.00;;;;;12.13;100.00;102447.56;5059254;28;54544;-89
2024/01/30 00:24:44;;;;;;;;;0.00;0.00;;;;;12.12;100.00;102449.28;5059891;28;45436;-89
2024/01/30 00:27:10;;;;;;;;;0.00;0.00;;;;;12.08;100.00;102446.72;5076468;28;45488;-89
2024/01/30 00:29:35;;;;;;;;;0.00;0.00;;;;;12.12;100.00;102456.25;5059360;28;47372;-89
2024/01/30 00:32:00;;;;;;;;;0.00;0.00;;;;;12.09;100.00;102461.50;5083870;27;51563;-89
2024/01/30 00:34:26;;;;;;;;;0.00;0.00;;;;;12.04;100.00;102453.72;5096348;27;45323;-89
2024/01/30 00:36:51;;;;;;;;;0.00;0.00;;;;;12.04;100.00;102461.56;5098211;27;45369;-89
2024/01/30 00:39:19;;;;;;;;;0.00;0.00;;;;;11.98;100.00;102449.41;5097681;27;45403;-90
2024/01/30 00:41:44;;;;;;;;;0.00;0.00;;;;;12.03;100.00;102456.34;5097774;27;45581;-89
2024/01/30 00:44:10;;;;;;;;;0.00;0.00;;;;;12.01;100.00;102458.94;5095353;27;45635;-89
2024/01/30 00:46:35;;;;;;;;;0.00;0.00;;;;;11.97;100.00;102446.81;5079898;27;45525;-89
2024/01/30 00:49:00;;;;;;;;;0.00;0.00;;;;;11.99;100.00;102452.88;5078766;27;47067;-89
2024/01/30 00:51:26;;;;;;;;;0.00;0.00;;;;;12.01;100.00;102449.38;5097641;27;45361;-89
2024/01/30 00:53:51;;;;;;;;;0.00;0.00;;;;;12.01;100.00;102454.59;5096270;27;45319;-89
2024/01/30 00:56:18;;;;;;;;;0.00;0.00;;;;;11.97;100.00;102449.41;5079775;27;45568;-89
2024/01/30 00:58:43;;;;;;;;;0.00;0.00;;;;;11.94;100.00;102458.16;5113180;27;45440;-89
2024/01/30 01:01:09;;;;;;;;;0.00;0.00;;;;;11.93;100.00;102459.00;5078452;27;45331;-89
2024/01/30 01:03:34;;;;;;;;;0.00;0.00;;;;;11.92;100.00;102456.41;5097355;27;45580;-89
2024/01/30 01:06:00;;;;;;;;;0.00;0.00;;;;;11.93;100.00;102460.75;5095742;27;45243;-89
2024/01/30 01:08:25;;;;;;;;;0.00;0.00;;;;;11.92;100.00;102459.00;5096038;27;47340;-89
2024/01/30 01:10:50;;;;;;;;;0.00;0.00;;;;;11.91;100.00;102462.53;5096233;27;45454;-89
2024/01/30 01:13:16;;;;;;;;;0.00;0.00;;;;;11.90;100.00;102455.56;5079271;27;45322;-89
2024/01/30 01:15:41;;;;;;;;;0.00;0.00;;;;;11.88;100.00;102452.06;5095870;27;54191;-89
2024/01/30 01:18:06;;;;;;;;;0.00;0.00;;;;;11.86;100.00;102451.22;5095668;27;47215;-89
2024/01/30 01:20:32;;;;;;;;;0.00;0.00;;;;;11.84;100.00;102453.81;5113093;27;45522;-89
2024/01/30 01:22:57;;;;;;;;;0.00;0.00;;;;;11.81;100.00;102444.28;5097792;27;45543;-89
2024/01/30 01:25:23;;;;;;;;;0.00;0.00;;;;;11.77;100.00;102441.69;5100801;27;45330;-89
2024/01/30 01:27:51;;;;;;;;;0.00;0.00;;;;;11.76;100.00;102445.19;5116454;27;46767;-88
2024/01/30 01:30:21;;;;;;;;;0.00;0.00;;;;;11.76;100.00;102442.59;5099381;27;45423;-89
2024/01/30 01:32:54;;;;;;;;;0.00;0.00;;;;;11.77;100.00;102442.53;5100304;27;45390;-89
2024/01/30 01:35:24;;;;;;;;;0.00;0.00;;;;;11.79;100.00;102445.16;5099889;27;45281;-88
2024/01/30 01:37:54;;;;;;;;;0.00;0.00;;;;;11.82;100.00;102434.69;5100204;27;45462;-88
2024/01/30 01:40:21;;;;;;;;;0.00;0.00;;;;;11.90;100.00;102437.28;5100334;27;45394;-88
2024/01/30 01:42:47;;;;;;;;;0.00;0.00;;;;;11.91;100.00;102433.81;5100615;27;45378;-89
2024/01/30 01:45:12;;;;;;;;;0.00;0.00;;;;;11.94;100.00;102428.56;5099610;27;45313;-89
2024/01/30 01:47:38;;;;;;;;;0.00;0.00;;;;;11.94;100.00;102434.66;5098790;27;49877;-89
2024/01/30 01:50:04;;;;;;;;;0.00;0.00;;;;;11.97;100.00;102441.59;5095119;27;45529;-89
2024/01/30 01:52:29;;;;;;;;;0.00;0.00;;;;;11.94;100.00;102441.59;5099280;27;45401;-88
2024/01/30 01:54:55;;;;;;;;;0.00;0.00;;;;;11.94;100.00;102444.22;5116185;27;45433;-89
2024/01/30 01:57:20;;;;;;;;;0.00;0.00;;;;;11.90;100.00;102440.75;5099040;27;47731;-89
2024/01/30 01:59:46;;;;;;;;;0.00;0.00;;;;;11.93;100.00;102442.50;5098684;27;45341;-88
2024/01/30 02:02:12;;;;;;;;;0.00;0.00;;;;;11.88;100.00;102442.47;5097986;27;50803;-89
2024/01/30 02:04:38;;;;;;;;;0.00;0.00;;;;;11.84;100.00;102442.53;5080505;27;54499;-89
2024/01/30 02:07:04;;;;;;;;;0.00;0.00;;;;;11.81;100.00;102439.06;5098580;27;46562;-90
2024/01/30 02:09:29;;;;;;;;;0.00;0.00;;;;;11.78;100.00;102433.00;5098579;27;45314;-89
2024/01/30 02:11:55;;;;;;;;;0.00;0.00;;;;;11.80;100.00;102441.69;5098689;27;45397;-89
2024/01/30 02:14:20;;;;;;;;;0.00;0.00;;;;;11.80;100.00;102439.94;5061221;28;58533;-89
2024/01/30 02:16:46;;;;;;;;;0.00;0.00;;;;;11.80;100.00;102439.94;5061004;28;48375;-89
2024/01/30 02:19:11;;;;;;;;;0.00;0.00;;;;;11.80;100.00;102433.84;5061601;28;45720;-89
2024/01/30 02:21:36;;;;;;;;;0.00;0.00;;;;;11.81;100.00;102427.75;5077703;28;45282;-89
2024/01/30 02:24:03;;;;;;;;;0.00;0.00;;;;;11.80;100.00;102424.28;5044477;28;45289;-89
2024/01/30 02:26:43;;;;;;;;;0.00;0.00;;;;;11.82;100.00;102432.09;5044899;28;47237;-90
2024/01/30 02:29:08;;;;;;;;;0.00;0.00;;;;;11.82;100.00;102435.56;5045725;28;45372;-90
2024/01/30 02:31:34;;;;;;;;;0.00;0.00;;;;;11.77;100.00;102441.69;5061566;28;45546;-89
2024/01/30 02:33:59;;;;;;;;;0.00;0.00;;;;;11.78;100.00;102435.59;5060891;28;45283;-90
2024/01/30 02:36:24;;;;;;;;;0.00;0.00;;;;;11.74;100.00;102439.97;5060408;28;48000;-89
2024/01/30 02:38:50;;;;;;;;;0.00;0.00;;;;;11.73;100.00;102435.63;5077801;28;46072;-89
2024/01/30 02:41:15;;;;;;;;;0.00;0.00;;;;;11.69;100.00;102433.06;5078193;28;45389;-88
2024/01/30 02:43:40;;;;;;;;;0.00;0.00;;;;;11.69;100.00;102436.53;5044092;28;45550;-88
2024/01/30 02:46:06;;;;;;;;;0.00;0.00;;;;;11.63;100.00;102441.78;5043172;28;54316;-88
2024/01/30 02:48:31;;;;;;;;;0.00;0.00;;;;;11.61;100.00;102449.63;5077410;28;45306;-88
2024/01/30 02:50:58;;;;;;;;;0.00;0.00;;;;;11.55;100.00;102434.03;5060424;28;51205;-88
2024/01/30 02:53:43;;;;;;;;;0.00;0.00;;;;;11.52;100.00;102431.41;5079241;28;45162;-88
2024/01/30 02:56:09;;;;;;;;;0.00;0.00;;;;;11.47;100.00;102427.97;5043119;28;47225;-88
2024/01/30 02:58:36;;;;;;;;;0.00;0.00;;;;;11.43;100.00;102416.69;5060133;28;45421;-89
2024/01/30 03:01:04;;;;;;;;;0.00;0.00;;;;;11.42;100.00;102414.06;5061345;28;45299;-89
2024/01/30 03:03:40;;;;;;;;;0.00;0.00;;;;;11.41;100.00;102413.22;5044150;28;45335;-89
2024/01/30 03:06:06;;;;;;;;;0.00;0.00;;;;;11.41;100.00;102420.19;5077512;28;46337;-89
2024/01/30 03:08:37;;;;;;;;;0.00;0.00;;;;;11.35;100.00;102425.44;5061030;28;45614;-89
2024/01/30 03:11:02;;;;;;;;;0.00;0.00;;;;;11.34;100.00;102431.50;5061629;28;45372;-88
2024/01/30 03:13:28;;;;;;;;;0.00;0.00;;;;;11.33;100.00;102433.25;5049063;28;45467;-89
2024/01/30 03:15:55;;;;;;;;;0.00;0.00;;;;;11.38;100.00;102423.66;5057786;28;47060;-89
2024/01/30 03:18:21;;;;;;;;;0.00;0.00;;;;;11.46;100.00;102417.53;5057349;28;45381;-89
2024/01/30 03:20:49;;;;;;;;;0.00;0.00;;;;;11.51;100.00;102421.00;5058649;28;45324;-88
2024/01/30 03:23:17;;;;;;;;;0.00;0.00;;;;;11.48;100.00;102419.28;5057702;28;45307;-88
2024/01/30 03:25:44;;;;;;;;;0.00;0.00;;;;;11.45;100.00;102418.44;5040209;28;48061;-89
2024/01/30 03:28:10;;;;;;;;;0.00;0.00;;;;;11.41;100.00;102435.81;5040789;28;45572;-89
2024/01/30 03:30:35;;;;;;;;;0.00;0.00;;;;;11.36;100.00;102432.38;5023297;28;45420;-89
2024/01/30 03:33:11;;;;;;;;;0.00;0.00;;;;;11.40;100.00;102436.69;5056758;28;53377;-89
2024/01/30 03:35:46;;;;;;;;;0.00;0.00;;;;;11.38;100.00;102426.25;5078015;28;45515;-88
2024/01/30 03:38:26;;;;;;;;;0.00;0.00;;;;;11.39;100.00;102438.44;5078377;28;45306;-88
2024/01/30 03:40:54;;;;;;;;;0.00;0.00;;;;;11.41;100.00;102436.69;5077089;28;45309;-89
2024/01/30 03:43:27;;;;;;;;;0.00;0.00;;;;;11.37;100.00;102434.97;5076971;28;45313;-89
2024/01/30 03:45:52;;;;;;;;;0.00;0.00;;;;;11.30;100.00;102425.44;5077624;28;45467;-89
2024/01/30 03:48:21;;;;;;;;;0.00;0.00;;;;;11.30;100.00;102427.19;5076633;28;45416;-89
2024/01/30 03:53:33;;;;;;;;;0.00;0.00;;;;;11.22;100.00;102420.28;5002003;28;45914;-88
2024/01/30 03:55:59;;;;;;;;;0.00;0.00;;;;;11.18;100.00;102417.69;4982053;28;47162;-89
2024/01/30 03:58:27;;;;;;;;;0.00;0.00;;;;;11.13;100.00;102414.25;4982167;28;45527;-88
2024/01/30 04:00:53;;;;;;;;;0.00;0.00;;;;;11.12;100.00;102405.53;4998689;28;45379;-88
2024/01/30 04:03:18;;;;;;;;;0.00;0.00;;;;;11.11;100.00;102405.56;4998707;28;45395;-88
2024/01/30 04:05:43;;;;;;;;;0.00;0.00;;;;;11.10;100.00;102404.69;4997471;28;71491;-87
2024/01/30 04:08:11;;;;;;;;;0.00;0.00;;;;;11.10;100.00;102409.91;4997844;28;64331;-88
2024/01/30 04:10:37;;;;;;;;;0.00;0.00;;;;;11.12;100.00;102415.97;5014909;28;45451;-88
2024/01/30 04:13:05;;;;;;;;;0.00;0.00;;;;;11.09;100.00;102407.28;4991570;28;45490;-88
2024/01/30 04:15:30;;;;;;;;;0.00;0.00;;;;;11.11;100.00;102413.41;5018893;28;47319;-88
2024/01/30 04:18:00;;;;;;;;;0.00;0.00;;;;;11.13;100.00;102411.66;5006172;28;57864;-89
2024/01/30 04:20:26;;;;;;;;;0.00;0.00;;;;;11.13;100.00;102409.03;5015135;28;45488;-89
2024/01/30 04:22:54;;;;;;;;;0.00;0.00;;;;;11.18;100.00;102412.47;5015089;28;45499;-88
2024/01/30 04:25:20;;;;;;;;;0.00;0.00;;;;;11.18;100.00;102400.31;4981539;28;47320;-89
2024/01/30 04:27:45;;;;;;;;;0.00;0.00;;;;;11.22;100.00;102402.03;4998481;28;45505;-89
2024/01/30 04:30:11;;;;;;;;;0.00;0.00;;;;;11.29;100.00;102407.19;5010537;28;45464;-88
2024/01/30 04:32:39;;;;;;;;;0.00;0.00;;;;;11.37;100.00;102403.69;5063887;28;45460;-88
2024/01/30 04:35:05;;;;;;;;;0.00;0.00;;;;;11.37;100.00;102401.09;5077167;28;45811;-88
2024/01/30 04:37:33;;;;;;;;;0.00;0.00;;;;;11.42;100.00;102404.53;5041911;28;45629;-89
2024/01/30 04:39:59;;;;;;;;;0.00;0.00;;;;;11.44;100.00;102401.94;5076274;28;45665;-89
2024/01/30 04:42:30;;;;;;;;;0.00;0.00;;;;;11.44;100.00;102404.53;5059232;28;45456;-88
2024/01/30 04:44:55;;;;;;;;;0.00;0.00;;;;;11.46;100.00;102401.88;5059242;28;48308;-89
2024/01/30 04:47:20;;;;;;;;;0.00;0.00;;;;;11.46;100.00;102404.50;5075658;28;45609;-89
2024/01/30 04:49:46;;;;;;;;;0.00;0.00;;;;;11.50;100.00;102427.09;5075298;28;45291;-89
2024/01/30 04:52:11;;;;;;;;;0.00;0.00;;;;;11.59;100.00;102421.81;5074889;28;45533;-89
2024/01/30 04:54:37;;;;;;;;;0.00;0.00;;;;;11.46;100.00;102413.22;5078264;28;46257;-89
2024/01/30 04:57:09;;;;;;;;;0.00;0.00;;;;;11.48;100.00;102427.09;5043896;28;45738;-88
2024/01/30 04:59:37;;;;;;;;;0.00;0.00;;;;;11.45;100.00;102424.50;5045898;28;45403;-89
2024/01/30 05:02:03;;;;;;;;;0.00;0.00;;;;;11.40;100.00;102421.03;5081208;28;45335;-89
2024/01/30 05:04:28;;;;;;;;;0.00;0.00;;;;;11.43;100.00;102423.66;5062652;28;47545;-89
2024/01/30 05:06:53;;;;;;;;;0.00;0.00;;;;;11.47;100.00;102434.94;5080696;28;45460;-89
2024/01/30 05:09:19;;;;;;;;;0.00;0.00;;;;;11.45;100.00;102431.47;5079668;28;46113;-89
2024/01/30 05:11:44;;;;;;;;;0.00;0.00;;;;;11.47;100.00;102437.53;5062050;28;56160;-89
2024/01/30 05:14:17;;;;;;;;;0.00;0.00;;;;;11.45;100.00;102439.28;5113098;27;47859;-88
2024/01/30 05:16:46;;;;;;;;;0.00;0.00;;;;;11.45;100.00;102447.97;5101188;27;45284;-88
2024/01/30 05:19:15;;;;;;;;;0.00;0.00;;;;;11.40;100.00;102444.50;5099041;27;45323;-89
2024/01/30 05:21:41;;;;;;;;;0.00;0.00;;;;;11.37;100.00;102449.75;5099742;27;45249;-89
2024/01/30 05:24:10;;;;;;;;;0.00;0.00;;;;;11.38;100.00;102449.72;5099146;27;47244;-88
2024/01/30 05:26:37;;;;;;;;;0.00;0.00;;;;;11.35;100.00;102454.97;5081065;27;47802;-88
2024/01/30 05:29:06;;;;;;;;;0.00;0.00;;;;;11.32;100.00;102456.72;5116475;27;45469;-89
2024/01/30 05:31:34;;;;;;;;;0.00;0.00;;;;;11.30;100.00;102464.56;5115171;27;45499;-89
2024/01/30 05:33:59;;;;;;;;;0.00;0.00;;;;;11.36;100.00;102461.06;5100416;27;45434;-89
2024/01/30 05:36:25;;;;;;;;;0.00;0.00;;;;;11.32;100.00;102461.94;5100278;27;45364;-88
2024/01/30 05:38:50;;;;;;;;;0.00;0.00;;;;;11.32;100.00;102465.41;5098921;27;45474;-88
2024/01/30 05:41:29;;;;;;;;;0.00;0.00;;;;;11.36;100.00;102469.72;5082535;27;45470;-89
2024/01/30 05:43:57;;;;;;;;;0.00;0.00;;;;;11.42;100.00;102466.22;5098529;27;45503;-89
2024/01/30 05:46:25;;;;;;;;;0.00;0.00;;;;;11.48;100.00;102458.41;5099277;27;45381;-89
2024/01/30 05:49:00;;;;;;;;;0.00;0.00;;;;;11.57;100.00;102470.50;5098591;27;45400;-89
2024/01/30 05:51:28;;;;;;;;;0.00;0.00;;;;;11.64;100.00;102482.63;5100683;27;45647;-89
2024/01/30 05:53:54;;;;;;;;;0.00;0.00;;;;;11.61;100.00;102475.69;5116476;27;47310;-88
2024/01/30 05:56:19;;;;;;;;;0.00;0.00;;;;;11.70;100.00;102490.44;5099000;27;45481;-89
2024/01/30 05:58:51;;;;;;;;;0.00;0.00;;;;;11.75;100.00;102480.81;5082193;27;45330;-89
2024/01/30 06:01:22;;;;;;;;;0.00;0.00;;;;;11.82;100.00;102479.91;5099491;27;46124;-89
2024/01/30 06:04:08;;;;;;;;;0.00;0.00;;;;;11.95;100.00;102492.94;5098879;27;48379;-89
2024/01/30 06:07:05;;;;;;;;;0.00;0.00;;;;;12.05;100.00;102498.94;5098728;27;45400;-89
2024/01/30 06:09:36;;;;;;;;;0.00;0.00;;;;;12.09;100.00;102485.00;5076803;28;45414;-88
2024/01/30 06:12:09;;;;;;;;;0.00;0.00;;;;;12.15;100.00;102488.44;5076970;28;45374;-89
2024/01/30 06:14:34;;;;;;;;;0.00;0.00;;;;;12.20;100.00;102496.22;5061259;28;45617;-89
2024/01/30 06:17:09;;;;;;;;;0.00;0.00;;;;;12.18;100.00;102493.66;5043060;28;45724;-89
2024/01/30 06:19:42;;;;;;;;;7.00;7.00;;;;;12.26;100.00;102505.75;5060644;28;45351;-89
2024/01/30 06:22:11;;;;;;;;;0.00;0.00;;;;;12.25;100.00;102497.06;5059639;28;45471;-89
2024/01/30 06:24:38;;;;;;;;;0.00;0.00;;;;;12.28;100.00;102498.78;5059198;28;46145;-89
2024/01/30 06:27:04;;;;;;;;;0.00;0.00;;;;;12.29;100.00;102505.72;5076910;28;45389;-89
2024/01/30 06:29:47;;;;;;;;;0.00;0.00;;;;;12.26;100.00;102509.25;5060525;28;45383;-89
2024/01/30 06:32:34;;;;;;;;;;;;;;;;;;;;;
2024/01/30 06:35:30;;;;;;;;;;;;;;;;;;;;;
2024/01/30 06:37:55;;;;;;;;;0.00;0.00;;;;;12.17;100.00;102523.22;5041857;28;73451;-88
2024/01/30 06:40:21;;;;;;;;;0.00;0.00;;;;;12.18;100.00;102519.75;5059814;28;45370;-91
2024/01/30 06:42:46;;;;;;;;;0.00;0.00;;;;;12.22;100.00;102522.31;5060450;28;45433;-92
2024/01/30 06:45:11;;;;;;;;;0.00;0.00;;;;;12.19;100.00;102521.47;5067098;27;47315;-94
2024/01/30 06:47:37;;;;;;;;;0.00;0.00;;;;;12.26;100.00;102534.47;5089711;27;45541;-90
2024/01/30 06:50:05;;;;;;;;;0.00;0.00;;;;;12.32;100.00;102532.69;5095310;27;52162;-89
2024/01/30 06:52:30;;;;;;;;;0.00;0.00;;;;;12.36;100.00;102533.53;5099878;27;45310;-95
2024/01/30 06:54:56;;;;;;;;;0.00;0.00;;;;;12.40;100.00;102536.09;5093662;27;46285;-95
2024/01/30 06:57:21;;;;;;;;;0.00;0.00;;;;;12.46;100.00;102529.97;5066500;28;64613;-96
2024/01/30 06:59:46;;;;;;;;;0.00;0.00;;;;;12.53;100.00;102530.78;5080653;27;45497;-93
2024/01/30 07:02:12;;;;;;;;;0.00;0.00;;;;;12.54;100.00;102538.59;5096213;27;45304;-92
2024/01/30 07:04:37;;;;;;;;;0.00;0.00;;;;;12.60;100.00;102540.31;5098970;27;46515;-83
2024/01/30 07:07:04;;;;;;;;;0.00;0.00;;;;;12.65;100.00;102535.03;5078730;27;69646;-86
2024/01/30 07:09:30;;;;;;;;;0.00;0.00;;;;;12.70;100.00;102535.84;5092371;27;45513;-86
2024/01/30 07:11:58;;;;;;;;;0.00;0.00;;;;;12.73;100.00;102536.69;5085214;27;45383;-85
2024/01/30 07:14:23;;;;;;;;;0.00;0.00;;;;;12.76;100.00;102547.13;5082488;27;45523;-92
2024/01/30 07:16:48;;;;;;;;;0.00;0.00;;;;;12.81;100.00;102543.59;5092111;27;45541;-91
2024/01/30 07:19:14;;;;;;;;;0.00;0.00;;;;;12.85;100.00;102551.41;5086214;27;45291;-90
2024/01/30 07:21:40;;;;;;;;;0.00;0.00;;;;;12.84;100.00;102554.91;5078449;27;69645;-85
2024/01/30 07:24:06;;;;;;;;;0.00;0.00;;;;;12.89;100.00;102555.72;5090754;27;45354;-87
2024/01/30 07:26:31;;;;;;;;;0.00;0.00;;;;;12.91;100.00;102555.72;5097835;27;45397;-89
2024/01/30 07:28:56;;;;;;;;;0.00;0.00;;;;;12.93;100.00;102567.88;5097872;27;46927;-88
2024/01/30 07:31:23;;;;;;;;;0.00;0.00;;;;;12.93;100.00;102567.00;5109357;27;57560;-88
2024/01/30 07:33:48;;;;;;;;;0.00;0.00;;;;;12.92;100.00;102579.19;5094989;27;47282;-88
2024/01/30 07:36:13;;;;;;;;;0.00;0.00;;;;;12.89;100.00;102580.97;5093328;27;45473;-89
2024/01/30 07:38:40;;;;;;;;;0.00;0.00;;;;;12.88;100.00;102574.88;5080149;27;54321;-88
2024/01/30 07:41:05;;;;;;;;;0.00;0.00;;;;;12.88;100.00;102582.72;5095426;27;45511;-88
2024/01/30 07:43:31;;;;;;;;;0.00;0.00;;;;;12.88;100.00;102585.34;5087102;27;47087;-88
2024/01/30 07:45:56;;;;;;;;;0.00;0.00;;;;;12.89;100.00;102588.81;5085530;27;50909;-85
2024/01/30 07:48:21;;;;;;;;;0.00;0.00;;;;;12.88;100.00;102587.94;5084811;27;45536;-86
2024/01/30 07:50:47;;;;;;;;;0.00;0.00;;;;;12.89;100.00;102594.94;5085231;27;45596;-87
2024/01/30 07:53:12;;;;;;;;;0.00;0.00;;;;;12.92;100.00;102594.03;5092449;27;69613;-87
2024/01/30 07:55:38;;;;;;;;;0.00;0.00;;;;;12.93;100.00;102595.78;5091854;27;45492;-87
2024/01/30 07:58:04;;;;;;;;;0.00;0.00;;;;;12.95;100.00;102602.69;5084908;27;45357;-87
2024/01/30 08:00:29;;;;;;;;;0.00;0.00;;;;;12.97;100.00;102595.72;5089353;27;45795;-87
2024/01/30 08:02:55;;;;;;;;;0.00;0.00;;;;;13.02;100.00;102606.13;5076731;27;54207;-86
2024/01/30 08:05:22;;;;;;;;;0.00;0.00;;;;;13.03;100.00;102601.78;5094351;27;45467;-86
2024/01/30 08:07:48;;;;;;;;;0.00;0.00;;;;;13.03;100.00;102607.84;5103310;27;45480;-87
2024/01/30 08:10:13;;;;;;;;;0.00;0.00;;;;;13.05;100.00;102616.53;5085034;27;46162;-86
2024/01/30 08:12:38;;;;;;;;;0.00;0.00;;;;;13.06;100.00;102620.91;5086611;27;46024;-85
2024/01/30 08:15:05;;;;;;;;;0.00;0.00;;;;;13.10;100.00;102625.22;5090628;27;45387;-85
2024/01/30 08:17:30;;;;;;;;;0.00;0.00;;;;;13.11;100.00;102629.59;5075983;27;45341;-86
2024/01/30 08:19:55;;;;;;;;;0.00;0.00;;;;;13.12;100.00;102638.28;5123710;27;45532;-85
2024/01/30 08:22:21;;;;;;;;;0.00;0.00;;;;;13.13;100.00;102629.53;5106992;27;64099;-86
2024/01/30 08:24:46;;;;;;;;;0.00;0.00;;;;;13.14;100.00;102636.53;5108327;27;56514;-86
2024/01/30 08:27:12;;;;;;;;;0.00;0.00;;;;;13.15;100.00;102631.28;5094476;27;45391;-86
2024/01/30 08:29:37;;;;;;;;;0.00;0.00;;;;;13.17;100.00;102636.50;5082049;27;45388;-85
2024/01/30 08:32:05;;;;;;;;;0.00;0.00;;;;;13.17;100.00;102634.75;5083104;27;47178;-86
2024/01/30 08:34:30;;;;;;;;;0.00;0.00;;;;;13.19;100.00;102637.34;5091733;27;46103;-85
2024/01/30 08:36:56;;;;;;;;;0.00;0.00;;;;;13.20;100.00;102649.53;5087711;27;56779;-86
2024/01/30 08:39:21;;;;;;;;;0.00;0.00;;;;;13.23;100.00;102648.66;5088714;27;59643;-86
2024/01/30 08:41:47;;;;;;;;;0.00;0.00;;;;;13.24;100.00;102656.50;5111866;27;45257;-85
2024/01/30 08:44:12;;;;;;;;;0.00;0.00;;;;;13.25;100.00;102646.88;5092697;27;45409;-86
2024/01/30 08:46:37;;;;;;;;;0.00;0.00;;;;;13.26;100.00;102649.50;5093899;27;69173;-86
2024/01/30 08:49:04;;;;;;;;;0.00;0.00;;;;;13.25;100.00;102654.72;5093103;27;64707;-86
2024/01/30 08:51:30;;;;;;;;;1.00;1.00;;;;;13.25;100.00;102660.81;5086178;27;46237;-86
2024/01/30 08:53:55;;;;;;;;;0.00;0.00;;;;;13.26;100.00;102672.13;5082398;27;45485;-86
2024/01/30 08:56:20;;;;;;;;;0.00;0.00;;;;;13.26;100.00;102673.03;5090792;27;65596;-86
2024/01/30 08:58:46;;;;;;;;;0.00;0.00;;;;;13.25;100.00;102676.50;5092636;27;61630;-86
2024/01/30 09:01:11;;;;;;;;;0.00;0.00;;;;;13.26;100.00;102678.25;5091969;27;49623;-86
2024/01/30 09:03:39;;;;;;;;;0.00;0.00;;;;;13.27;100.00;102679.97;5074353;27;60514;-87
2024/01/30 09:06:08;;;;;;;;;0.00;0.00;;;;;13.27;100.00;102682.59;5081227;27;45396;-86
2024/01/30 09:08:34;;;;;;;;;0.00;0.00;;;;;13.28;100.00;102678.22;5111893;27;45329;-86
2024/01/30 09:11:00;;;;;;;;;2.25;2.25;;;;;13.28;100.00;102676.50;5107929;27;47252;-85
2024/01/30 09:13:25;;;;;;;;;0.33;0.33;;;;;13.27;100.00;102687.81;5092837;27;67714;-86
2024/01/30 09:15:50;;;;;;;;;2.00;2.00;;;;;13.32;100.00;102688.69;5095204;27;45278;-86
2024/01/30 09:18:15;;;;;;;;;17.67;17.33;;;;;13.31;100.00;102693.94;5093581;27;70118;-86
2024/01/30 09:20:41;;;;;;;;;1.00;1.00;;;;;13.30;100.00;102697.41;5093735;27;57665;-86
2024/01/30 09:23:06;;;;;;;;;0.00;0.00;;;;;13.31;100.00;102702.63;5077534;27;45533;-85
2024/01/30 09:25:32;;;;;;;;;0.00;0.00;;;;;13.34;100.00;102699.13;5086181;27;45372;-86
2024/01/30 09:27:59;;;;;;;;;0.00;0.00;;;;;13.36;100.00;102705.22;5073745;28;45472;-86
2024/01/30 09:30:24;;;;;;;;;0.00;0.00;;;;;13.35;100.00;102693.91;5086968;27;45568;-86
2024/01/30 09:32:49;;;;;;;;;0.00;0.00;;;;;13.35;100.00;102706.97;5093988;27;45386;-86
2024/01/30 09:35:15;;;;;;;;;0.00;0.00;;;;;13.34;100.00;102713.06;5093574;27;45718;-86
2024/01/30 09:37:40;;;;;;;;;0.00;0.00;;;;;13.35;100.00;102716.56;5091784;27;45387;-86
2024/01/30 09:40:06;;;;;;;;;0.00;0.00;;;;;13.38;100.00;102718.28;5078426;27;55939;-86
2024/01/30 09:42:38;;;;;;;;;0.00;0.00;;;;;13.34;100.00;102720.91;5092636;27;45574;-85
2024/01/30 09:45:05;;;;;;;;;0.00;0.00;;;;;13.41;100.00;102723.47;5084929;27;45539;-86
2024/01/30 09:47:42;;;;;;;;;0.00;0.00;;;;;13.46;100.00;102727.78;5097742;27;45395;-86
2024/01/30 09:50:08;;;;;;;;;0.00;0.00;;;;;13.49;100.00;102734.75;5084033;27;46194;-86
2024/01/30 09:52:34;;;;;;;;;0.00;0.00;;;;;13.54;100.00;102725.97;5089740;27;45388;-86
2024/01/30 09:55:00;;;;;;;;;0.00;0.00;;;;;13.63;100.00;102732.00;5086303;27;45601;-86
2024/01/30 09:57:26;;;;;;;;;0.00;0.00;;;;;13.68;100.00;102730.19;5108075;27;45484;-86
2024/01/30 09:59:53;;;;;;;;;0.00;0.00;;;;;13.72;100.00;102729.28;5092227;27;46389;-86
2024/01/30 10:02:19;;;;;;;;;0.00;0.00;;;;;13.80;100.00;102735.31;5077296;28;45474;-86
2024/01/30 10:04:44;;;;;;;;;2.50;2.50;;;;;13.82;100.00;102733.56;5095460;27;45326;-86
2024/01/30 10:07:11;;;;;;;;;0.00;0.00;;;;;13.89;100.00;102739.56;5110013;27;62314;-86
2024/01/30 10:09:37;;;;;;;;;0.00;0.00;;;;;13.92;100.00;102739.53;5091372;27;46151;-86
2024/01/30 10:12:03;;;;;;;;;0.00;0.00;;;;;13.97;100.00;102740.38;5108830;27;45327;-85
2024/01/30 10:14:29;;;;;;;;;0.00;0.00;;;;;14.05;100.00;102746.38;5092695;27;45326;-85
2024/01/30 10:16:55;;;;;;;;;0.00;0.00;;;;;14.14;100.00;102743.66;5092063;27;47209;-86
2024/01/30 10:19:21;;;;;;;;;0.00;0.00;;;;;14.23;100.00;102747.91;5104166;27;46442;-85
2024/01/30 10:21:46;;;;;;;;;0.00;0.00;;;;;14.32;100.00;102744.31;5093133;27;45662;-85
2024/01/30 10:24:13;;;;;;;;;0.00;0.00;;;;;14.40;100.00;102749.47;5094440;27;66987;-86
2024/01/30 10:26:39;;;;;;;;;0.00;0.00;;;;;14.44;100.00;102759.00;5087003;27;45595;-87
2024/01/30 10:29:05;;;;;;;;;0.00;0.00;;;;;14.41;100.00;102761.66;5096220;27;45583;-85
2024/01/30 10:31:30;;;;;;;;;0.00;0.00;;;;;14.40;100.00;102763.41;5109822;27;45301;-84
2024/01/30 10:33:55;;;;;;;;;1.00;1.00;;;;;14.39;100.00;102761.66;5114080;27;45392;-82
2024/01/30 10:36:30;;;;;;;;;0.00;0.00;;;;;14.45;100.00;102764.25;5080324;27;63206;-85
2024/01/30 10:38:59;;;;;;;;;0.00;0.00;;;;;14.48;100.00;102768.56;5085405;27;48401;-86
2024/01/30 10:41:26;;;;;;;;;0.00;0.00;;;;;14.52;100.00;102771.13;5097841;27;45336;-86
2024/01/30 10:44:03;;;;;;;;;0.00;0.00;;;;;14.55;100.00;102775.47;5098969;27;45409;-86
2024/01/30 10:46:31;;;;;;;;;0.00;0.00;;;;;14.53;100.00;102772.84;5124045;27;46814;-86
2024/01/30 10:49:01;;;;;;;;;0.00;0.00;;;;;14.51;100.00;102781.63;5096332;27;45536;-85
2024/01/30 10:51:27;;;;;;;;;0.00;0.00;;;;;14.45;100.00;102790.44;5081844;27;45361;-85
2024/01/30 10:53:53;;;;;;;;;0.00;0.00;;;;;14.38;100.00;102787.91;5082221;27;45518;-87
2024/01/30 10:56:22;;;;;;;;;3.00;3.00;;;;;14.35;100.00;102793.19;5095575;27;45453;-85
2024/01/30 10:58:52;;;;;;;;;0.00;0.00;;;;;14.34;100.00;102797.56;5104346;27;45659;-84
2024/01/30 11:01:22;;;;;;;;;0.00;0.00;;;;;14.35;100.00;102796.66;5115210;27;45794;-85
2024/01/30 11:03:50;;;;;;;;;0.00;0.00;;;;;14.33;100.00;102801.91;5081133;27;45497;-87
2024/01/30 11:06:18;;;;;;;;;0.00;0.00;;;;;14.24;100.00;102799.41;5095938;27;45358;-84
2024/01/30 11:08:45;;;;;;;;;0.00;0.00;;;;;14.20;100.00;102808.19;5082687;27;46527;-85
2024/01/30 11:11:10;;;;;;;;;0.00;0.00;;;;;14.13;100.00;102806.50;5097243;27;45457;-85
2024/01/30 11:13:36;;;;;;;;;0.00;0.00;;;;;14.05;100.00;102811.84;5108779;27;45367;-86
2024/01/30 11:16:05;;;;;;;;;0.00;0.00;;;;;14.01;100.00;102820.63;5088461;27;45248;-85
2024/01/30 11:18:31;;;;;;;;;0.00;0.00;;;;;14.01;100.00;102818.00;5116523;27;47268;-87
2024/01/30 11:21:01;;;;;;;;;0.00;0.00;;;;;14.04;100.00;102823.22;5111746;27;45445;-87